createdAt,value
2019-02-27T00:00:32.206Z,8.07
2019-02-27T00:03:19.218Z,9.13
2019-02-27T00:06:07.051Z,7.03
2019-02-27T00:08:54.296Z,9.57
2019-02-27T00:11:46.002Z,8.83
2019-02-27T00:14:31.191Z,6.73
2019-02-27T00:17:18.882Z,10.37
2019-02-27T00:20:06.960Z,7.00
2019-02-27T00:22:54.038Z,6.57
2019-02-27T00:25:41.081Z,6.87
2019-02-27T00:28:28.466Z,8.33
2019-02-27T00:31:15.764Z,7.57
2019-02-27T00:34:02.728Z,6.87
2019-02-27T00:36:49.773Z,8.13
2019-02-27T00:39:36.693Z,6.67
2019-02-27T00:42:23.440Z,8.83
2019-02-27T00:45:11.597Z,7.03
2019-02-27T00:47:58.628Z,7.33
2019-02-27T00:50:45.545Z,8.80
2019-02-27T00:53:32.732Z,6.40
2019-02-27T00:56:20.039Z,9.53
2019-02-27T00:59:06.980Z,8.90
2019-02-27T01:01:54.202Z,7.30
2019-02-27T01:04:41.272Z,8.13
2019-02-27T01:07:28.438Z,8.53
2019-02-27T01:10:15.727Z,8.03
2019-02-27T01:13:02.514Z,7.30
2019-02-27T01:15:49.484Z,6.53
2019-02-27T01:18:36.737Z,7.77
2019-02-27T01:21:23.878Z,8.63
2019-02-27T01:24:11.530Z,7.77
2019-02-27T01:26:58.434Z,7.27
2019-02-27T01:29:45.695Z,10.33
2019-02-27T01:32:32.941Z,7.50
2019-02-27T01:35:20.181Z,8.67
2019-02-27T01:38:07.406Z,9.53
2019-02-27T01:40:54.393Z,6.57
2019-02-27T01:43:41.409Z,9.53
2019-02-27T01:46:28.666Z,9.93
2019-02-27T01:49:16.785Z,8.43
2019-02-27T01:52:03.832Z,10.77
2019-02-27T01:54:50.848Z,8.67
2019-02-27T01:57:37.861Z,8.03
2019-02-27T02:00:24.950Z,8.70
2019-02-27T02:03:13.607Z,9.30
2019-02-27T02:06:00.825Z,11.53
2019-02-27T02:08:48.252Z,7.97
2019-02-27T02:11:35.732Z,7.30
2019-02-27T02:14:43.432Z,7.60
2019-02-27T02:18:06.462Z,7.33
2019-02-27T02:21:08.665Z,8.23
2019-02-27T02:24:13.470Z,6.97
2019-02-27T02:27:08.231Z,8.37
2019-02-27T02:29:57.798Z,8.63
2019-02-27T02:32:52.324Z,8.17
2019-02-27T02:35:57.417Z,8.80
2019-02-27T02:39:08.794Z,7.17
2019-02-27T02:42:04.891Z,7.30
2019-02-27T02:45:10.134Z,8.17
2019-02-27T02:48:00.375Z,7.30
2019-02-27T02:51:12.879Z,8.33
2019-02-27T02:54:17.978Z,8.00
2019-02-27T02:57:08.115Z,7.17
2019-02-27T03:00:13.513Z,7.03
2019-02-27T03:03:21.737Z,6.27
2019-02-27T03:06:34.579Z,8.40
2019-02-27T03:09:30.227Z,9.80
2019-02-27T03:12:31.105Z,8.20
2019-02-27T03:15:28.423Z,10.90
2019-02-27T03:18:37.042Z,7.30
2019-02-27T03:21:30.125Z,6.60
2019-02-27T03:24:31.630Z,7.13
2019-02-27T03:27:30.855Z,6.00
2019-02-27T03:30:40.482Z,6.90
2019-02-27T03:33:50.435Z,7.63
2019-02-27T03:37:13.417Z,6.07
2019-02-27T03:40:03.423Z,7.37
2019-02-27T03:42:53.163Z,6.63
2019-02-27T03:45:58.458Z,7.73
2019-02-27T03:49:09.706Z,7.03
2019-02-27T03:52:18.006Z,7.23
2019-02-27T03:55:33.678Z,6.27
2019-02-27T03:58:35.965Z,7.90
2019-02-27T04:01:31.632Z,6.50
2019-02-27T04:04:29.549Z,6.20
2019-02-27T04:07:25.131Z,7.30
2019-02-27T04:10:12.342Z,5.70
2019-02-27T04:12:59.597Z,6.50
2019-02-27T04:15:46.985Z,6.07
2019-02-27T04:18:32.601Z,6.30
2019-02-27T04:21:25.022Z,6.83
2019-02-27T04:24:08.185Z,9.13
2019-02-27T04:26:55.521Z,8.78
2019-02-27T04:29:42.763Z,7.03
2019-02-27T04:32:30.744Z,7.60
2019-02-27T04:35:18.156Z,7.13
2019-02-27T04:38:05.770Z,7.20
2019-02-27T04:40:53.160Z,6.90
2019-02-27T04:43:40.317Z,7.63
2019-02-27T04:46:27.566Z,7.93
2019-02-27T04:49:15.028Z,7.77
2019-02-27T04:52:02.279Z,9.43
2019-02-27T04:54:49.502Z,7.75
2019-02-27T04:57:36.678Z,7.90
2019-02-27T05:00:26.255Z,7.73
2019-02-27T05:03:12.828Z,8.03
2019-02-27T05:06:00.090Z,8.20
2019-02-27T05:08:47.313Z,7.90
2019-02-27T05:11:34.570Z,7.90
2019-02-27T05:14:22.133Z,8.80
2019-02-27T05:17:09.485Z,9.37
2019-02-27T05:19:56.748Z,7.67
2019-02-27T05:22:44.165Z,7.00
2019-02-27T05:25:31.378Z,8.23
2019-02-27T05:28:18.778Z,8.37
2019-02-27T05:31:06.114Z,9.13
2019-02-27T05:33:53.849Z,9.17
2019-02-27T05:36:41.331Z,8.43
2019-02-27T05:39:28.741Z,9.43
2019-02-27T05:42:15.955Z,7.80
2019-02-27T05:45:03.737Z,7.83
2019-02-27T05:47:51.247Z,7.60
2019-02-27T05:50:38.537Z,8.07
2019-02-27T05:53:26.159Z,7.37
2019-02-27T05:56:16.318Z,7.83
2019-02-27T05:59:02.193Z,7.40
2019-02-27T06:01:48.877Z,7.77
2019-02-27T06:04:36.194Z,7.17
2019-02-27T06:07:23.502Z,7.43
2019-02-27T06:10:20.203Z,7.47
2019-02-27T06:13:06.188Z,7.87
2019-02-27T06:15:53.028Z,8.33
2019-02-27T06:18:40.469Z,7.60
2019-02-27T06:21:27.975Z,7.73
2019-02-27T06:24:15.296Z,9.37
2019-02-27T06:27:06.116Z,12.03
2019-02-27T06:29:51.740Z,21.53
2019-02-27T06:32:38.639Z,14.17
2019-02-27T06:35:26.201Z,15.73
2019-02-27T06:38:13.548Z,12.58
2019-02-27T06:41:00.564Z,11.90
2019-02-27T06:43:48.097Z,12.40
2019-02-27T06:46:35.541Z,11.40
2019-02-27T06:49:22.633Z,15.58
2019-02-27T06:52:09.942Z,10.53
2019-02-27T06:54:57.306Z,9.23
2019-02-27T06:57:44.725Z,8.30
2019-02-27T07:00:35.800Z,7.70
2019-02-27T07:03:20.134Z,8.93
2019-02-27T07:06:07.814Z,8.17
2019-02-27T07:08:54.772Z,8.17
2019-02-27T07:11:44.895Z,12.27
2019-02-27T07:14:31.243Z,14.87
2019-02-27T07:17:18.417Z,16.73
2019-02-27T07:20:08.876Z,16.77
2019-02-27T07:22:56.020Z,27.73
2019-02-27T07:25:43.355Z,18.00
2019-02-27T07:28:30.800Z,13.60
2019-02-27T07:31:18.528Z,8.10
2019-02-27T07:34:06.205Z,12.30
2019-02-27T07:36:53.241Z,11.27
2019-02-27T07:39:40.691Z,9.65
2019-02-27T07:42:31.908Z,7.37
2019-02-27T07:45:18.536Z,6.43
2019-02-27T07:48:05.613Z,7.63
2019-02-27T07:50:53.256Z,8.23
2019-02-27T07:53:40.703Z,7.50
2019-02-27T07:56:28.430Z,7.20
2019-02-27T07:59:15.460Z,8.47
2019-02-27T08:02:03.183Z,8.93
2019-02-27T08:04:51.664Z,7.37
2019-02-27T08:07:40.243Z,7.05
2019-02-27T08:10:27.597Z,6.77
2019-02-27T08:13:14.810Z,5.83
2019-02-27T08:16:02.075Z,6.23
2019-02-27T08:18:49.620Z,7.60
2019-02-27T08:21:36.685Z,6.70
2019-02-27T08:24:24.890Z,6.80
2019-02-27T08:27:11.812Z,6.57
2019-02-27T08:29:59.850Z,6.63
2019-02-27T08:32:47.178Z,7.23
2019-02-27T08:35:33.903Z,6.67
2019-02-27T08:38:20.547Z,7.07
2019-02-27T08:41:07.853Z,7.23
2019-02-27T08:43:54.895Z,7.17
2019-02-27T08:46:42.556Z,7.37
2019-02-27T08:49:31.891Z,8.10
2019-02-27T08:52:19.497Z,10.23
2019-02-27T08:55:18.862Z,9.45
2019-02-27T08:57:59.524Z,10.35
2019-02-27T09:00:48.077Z,8.48
2019-02-27T09:03:36.435Z,10.25
2019-02-27T09:06:27.527Z,10.63
2019-02-27T09:09:14.969Z,9.05
2019-02-27T09:12:03.329Z,8.90
2019-02-27T09:14:51.167Z,10.18
2019-02-27T09:17:38.990Z,8.55
2019-02-27T09:20:27.105Z,8.68
2019-02-27T09:23:14.577Z,9.60
2019-02-27T09:26:03.414Z,8.63
2019-02-27T09:28:51.229Z,9.13
2019-02-27T09:31:38.745Z,9.73
2019-02-27T09:34:26.825Z,8.25
2019-02-27T09:37:16.912Z,8.20
2019-02-27T09:40:07.294Z,8.13
2019-02-27T09:42:55.023Z,9.45
2019-02-27T09:45:46.156Z,9.23
2019-02-27T09:48:33.499Z,9.80
2019-02-27T09:51:22.314Z,10.75
2019-02-27T09:54:11.070Z,19.05
2019-02-27T09:57:02.087Z,7.70
2019-02-27T09:59:51.146Z,7.58
2019-02-27T10:02:38.303Z,7.17
2019-02-27T10:05:26.296Z,7.10
2019-02-27T10:08:14.027Z,7.05
2019-02-27T10:11:01.874Z,7.65
2019-02-27T10:13:49.634Z,6.20
2019-02-27T10:16:37.246Z,8.08
2019-02-27T10:19:27.009Z,11.73
2019-02-27T10:22:13.832Z,6.95
2019-02-27T10:25:01.515Z,6.28
2019-02-27T10:27:49.349Z,4.85
2019-02-27T10:30:36.940Z,5.08
2019-02-27T10:33:25.884Z,6.45
2019-02-27T10:36:13.178Z,5.30
2019-02-27T10:39:02.130Z,5.30
2019-02-27T10:41:50.631Z,7.10
2019-02-27T10:44:38.290Z,8.17
2019-02-27T10:47:25.846Z,7.50
2019-02-27T10:50:14.314Z,8.40
2019-02-27T10:53:01.926Z,7.90
2019-02-27T10:55:50.059Z,7.23
2019-02-27T10:58:37.697Z,7.33
2019-02-27T11:01:25.071Z,6.33
2019-02-27T11:04:12.377Z,5.30
2019-02-27T11:06:59.690Z,5.33
2019-02-27T11:09:47.176Z,6.07
2019-02-27T11:12:34.333Z,6.20
2019-02-27T11:15:22.733Z,6.30
2019-02-27T11:18:10.123Z,6.07
2019-02-27T11:20:59.146Z,6.37
2019-02-27T11:23:46.615Z,5.90
2019-02-27T11:26:34.039Z,6.10
2019-02-27T11:29:23.594Z,5.87
2019-02-27T11:32:10.142Z,5.90
2019-02-27T11:34:57.389Z,6.23
2019-02-27T11:37:47.518Z,6.70
2019-02-27T11:40:34.152Z,6.33
2019-02-27T11:43:21.560Z,7.17
2019-02-27T11:46:09.271Z,7.10
2019-02-27T11:48:57.047Z,7.10
2019-02-27T11:51:45.475Z,6.43
2019-02-27T11:54:32.794Z,5.83
2019-02-27T11:57:20.519Z,5.07
2019-02-27T12:00:13.603Z,6.17
2019-02-27T12:03:00.692Z,5.30
2019-02-27T12:05:48.163Z,5.30
2019-02-27T12:08:35.358Z,6.20
2019-02-27T12:11:22.649Z,5.10
2019-02-27T12:14:10.544Z,5.53
2019-02-27T12:16:57.861Z,5.00
2019-02-27T12:19:45.320Z,5.13
2019-02-27T12:22:32.951Z,4.80
2019-02-27T12:25:26.899Z,4.30
2019-02-27T12:28:11.552Z,4.90
2019-02-27T12:30:58.895Z,5.10
2019-02-27T12:33:46.257Z,5.00
2019-02-27T12:36:33.915Z,5.30
2019-02-27T12:39:21.405Z,5.13
2019-02-27T12:42:08.640Z,4.80
2019-02-27T12:44:56.157Z,4.07
2019-02-27T12:47:43.445Z,3.63
2019-02-27T12:50:31.666Z,3.80
2019-02-27T12:53:21.554Z,3.67
2019-02-27T12:56:08.611Z,3.57
2019-02-27T12:58:58.281Z,4.00
2019-02-27T13:01:45.603Z,3.87
2019-02-27T13:04:32.961Z,4.00
2019-02-27T13:07:20.529Z,3.77
2019-02-27T13:10:16.144Z,3.33
2019-02-27T13:13:03.842Z,3.40
2019-02-27T13:15:51.473Z,3.33
2019-02-27T13:18:38.557Z,3.67
2019-02-27T13:21:26.064Z,3.90
2019-02-27T13:24:15.386Z,4.17
2019-02-27T13:27:02.839Z,4.20
2019-02-27T13:29:52.163Z,3.77
2019-02-27T13:32:39.132Z,4.23
2019-02-27T13:35:28.468Z,4.43
2019-02-27T13:38:18.511Z,4.30
2019-02-27T13:41:07.775Z,4.20
2019-02-27T13:43:54.249Z,4.50
2019-02-27T13:46:41.200Z,3.97
2019-02-27T13:49:28.649Z,3.77
2019-02-27T13:52:15.913Z,4.50
2019-02-27T13:55:03.232Z,4.03
2019-02-27T13:57:50.913Z,5.20
2019-02-27T14:00:38.314Z,5.30
2019-02-27T14:03:25.626Z,4.63
2019-02-27T14:06:13.254Z,4.70
2019-02-27T14:09:00.705Z,4.53
2019-02-27T14:11:48.380Z,5.17
2019-02-27T14:14:35.572Z,4.30
2019-02-27T14:17:23.234Z,3.83
2019-02-27T14:20:15.664Z,4.20
2019-02-27T14:23:03.275Z,4.10
2019-02-27T14:25:50.894Z,4.43
2019-02-27T14:28:38.397Z,4.23
2019-02-27T14:31:25.398Z,5.03
2019-02-27T14:34:12.981Z,5.60
2019-02-27T14:37:00.320Z,5.47
2019-02-27T14:39:47.615Z,5.53
2019-02-27T14:42:34.943Z,5.10
2019-02-27T14:45:25.867Z,5.27
2019-02-27T14:48:13.159Z,5.10
2019-02-27T14:51:00.726Z,4.53
2019-02-27T14:53:51.978Z,4.60
2019-02-27T14:56:37.250Z,6.10
2019-02-27T14:59:24.652Z,5.67
2019-02-27T15:02:12.086Z,5.50
2019-02-27T15:04:59.294Z,5.73
2019-02-27T15:07:47.021Z,4.90
2019-02-27T15:10:34.623Z,5.77
2019-02-27T15:13:22.261Z,6.63
2019-02-27T15:16:09.462Z,6.60
2019-02-27T15:18:56.936Z,5.90
2019-02-27T15:21:46.532Z,5.43
2019-02-27T15:24:34.961Z,5.70
2019-02-27T15:27:25.110Z,5.80
2019-02-27T15:30:17.118Z,5.30
2019-02-27T15:33:05.448Z,5.50
2019-02-27T15:35:55.416Z,6.03
2019-02-27T15:38:43.570Z,5.83
2019-02-27T15:41:35.100Z,6.07
2019-02-27T15:44:20.237Z,6.62
2019-02-27T15:47:07.362Z,6.20
2019-02-27T15:49:54.665Z,6.47
2019-02-27T15:52:42.035Z,6.17
2019-02-27T15:55:32.823Z,6.50
2019-02-27T15:58:18.963Z,6.35
2019-02-27T16:01:06.500Z,6.42
2019-02-27T16:03:54.282Z,5.90
2019-02-27T16:06:42.130Z,5.90
2019-02-27T16:09:31.814Z,6.00
2019-02-27T16:12:19.963Z,6.10
2019-02-27T16:15:10.336Z,4.87
2019-02-27T16:17:57.945Z,4.70
2019-02-27T16:20:47.043Z,5.30
2019-02-27T16:23:37.273Z,5.03
2019-02-27T16:26:26.951Z,7.72
2019-02-27T16:29:13.521Z,7.60
2019-02-27T16:32:01.140Z,9.00
2019-02-27T16:34:50.309Z,7.50
2019-02-27T16:37:37.957Z,6.80
2019-02-27T16:40:26.796Z,5.90
2019-02-27T16:43:14.471Z,5.08
2019-02-27T16:46:07.323Z,6.45
2019-02-27T16:48:51.425Z,7.67
2019-02-27T16:51:39.210Z,7.45
2019-02-27T16:54:27.600Z,7.20
2019-02-27T16:57:21.066Z,8.23
2019-02-27T17:00:07.759Z,9.90
2019-02-27T17:02:57.051Z,8.65
2019-02-27T17:05:44.862Z,10.13
2019-02-27T17:08:35.663Z,11.70
2019-02-27T17:11:22.443Z,16.15
2019-02-27T17:14:10.420Z,12.15
2019-02-27T17:16:57.987Z,11.68
2019-02-27T17:19:45.657Z,13.58
2019-02-27T17:22:33.930Z,9.48
2019-02-27T17:25:21.737Z,10.48
2019-02-27T17:28:09.278Z,9.65
2019-02-27T17:30:56.522Z,9.00
2019-02-27T17:33:44.343Z,7.37
2019-02-27T17:36:32.627Z,6.92
2019-02-27T17:39:22.262Z,9.23
2019-02-27T17:42:09.863Z,9.58
2019-02-27T17:44:56.936Z,9.13
2019-02-27T17:47:44.790Z,6.33
2019-02-27T17:50:32.454Z,8.67
2019-02-27T17:53:20.413Z,5.43
2019-02-27T17:56:08.753Z,5.47
2019-02-27T17:58:57.939Z,8.70
2019-02-27T18:01:46.951Z,10.60
2019-02-27T18:04:33.686Z,8.67
2019-02-27T18:07:20.596Z,11.87
2019-02-27T18:10:10.189Z,6.80
2019-02-27T18:12:58.908Z,8.40
2019-02-27T18:15:45.517Z,6.37
2019-02-27T18:18:32.753Z,5.47
2019-02-27T18:21:19.921Z,5.50
2019-02-27T18:24:07.252Z,4.50
2019-02-27T18:26:54.234Z,8.13
2019-02-27T18:29:43.668Z,5.97
2019-02-27T18:32:30.011Z,8.13
2019-02-27T18:35:17.694Z,7.60
2019-02-27T18:38:04.665Z,6.67
2019-02-27T18:40:51.813Z,7.70
2019-02-27T18:43:39.100Z,6.30
2019-02-27T18:46:25.881Z,7.20
2019-02-27T18:49:18.166Z,6.90
2019-02-27T18:52:06.388Z,11.13
2019-02-27T18:54:50.346Z,12.20
2019-02-27T18:57:39.042Z,11.73
2019-02-27T19:00:28.205Z,6.70
2019-02-27T19:03:15.446Z,6.30
2019-02-27T19:06:02.582Z,11.07
2019-02-27T19:08:49.914Z,10.37
2019-02-27T19:11:36.957Z,7.10
2019-02-27T19:14:24.054Z,10.03
2019-02-27T19:17:11.466Z,8.57
2019-02-27T19:19:58.240Z,9.00
2019-02-27T19:22:45.553Z,10.10
2019-02-27T19:25:34.749Z,7.80
2019-02-27T19:28:24.598Z,9.60
2019-02-27T19:31:10.160Z,9.60
2019-02-27T19:33:57.104Z,8.63
2019-02-27T19:36:44.564Z,10.90
2019-02-27T19:39:31.880Z,11.80
2019-02-27T19:42:19.059Z,9.77
2019-02-27T19:45:08.150Z,9.47
2019-02-27T19:47:55.836Z,7.50
2019-02-27T19:50:46.364Z,12.77
2019-02-27T19:53:31.533Z,11.87
2019-02-27T19:56:18.586Z,11.87
2019-02-27T19:59:05.730Z,8.60
2019-02-27T20:01:53.057Z,9.90
2019-02-27T20:04:44.679Z,8.60
2019-02-27T20:07:28.993Z,12.13
2019-02-27T20:10:17.455Z,8.83
2019-02-27T20:13:06.340Z,10.43
2019-02-27T20:15:53.366Z,9.40
2019-02-27T20:18:40.517Z,7.83
2019-02-27T20:21:29.248Z,7.50
2019-02-27T20:24:16.319Z,9.57
2019-02-27T20:27:03.635Z,7.40
2019-02-27T20:29:50.775Z,6.47
2019-02-27T20:32:37.863Z,6.70
2019-02-27T20:35:25.123Z,6.40
2019-02-27T20:38:15.348Z,6.50
2019-02-27T20:41:00.714Z,8.60
2019-02-27T20:43:47.687Z,7.50
2019-02-27T20:46:34.925Z,7.93
2019-02-27T20:49:21.865Z,6.47
2019-02-27T20:52:14.560Z,6.93
2019-02-27T20:54:58.932Z,7.63
2019-02-27T20:57:46.532Z,6.50
2019-02-27T21:00:36.373Z,6.67
2019-02-27T21:03:26.768Z,6.00
2019-02-27T21:06:12.879Z,6.87
2019-02-27T21:08:59.432Z,7.80
2019-02-27T21:11:46.917Z,7.27
2019-02-27T21:14:34.007Z,7.13
2019-02-27T21:17:21.873Z,6.80
2019-02-27T21:20:11.918Z,11.23
2019-02-27T21:25:49.309Z,11.47
2019-02-27T21:27:12.525Z,8.03
2019-02-27T21:28:36.905Z,10.10
2019-02-27T21:31:27.572Z,10.47
2019-02-27T21:34:12.517Z,11.33
2019-02-27T21:36:59.288Z,11.33
2019-02-27T21:39:46.062Z,12.60
2019-02-27T21:42:33.345Z,11.77
2019-02-27T21:45:23.700Z,8.47
2019-02-27T21:48:11.127Z,10.47
2019-02-27T21:50:58.210Z,7.70
2019-02-27T21:53:45.294Z,10.23
2019-02-27T21:56:32.357Z,10.93
2019-02-27T21:59:19.382Z,7.73
2019-02-27T22:02:06.142Z,9.70
2019-02-27T22:04:53.478Z,8.33
2019-02-27T22:07:40.534Z,10.50
2019-02-27T22:10:27.269Z,11.30
2019-02-27T22:13:14.242Z,8.50
2019-02-27T22:16:01.242Z,11.13
2019-02-27T22:18:48.114Z,15.83
2019-02-27T22:21:35.103Z,16.27
2019-02-27T22:24:21.878Z,14.03
2019-02-27T22:27:09.160Z,12.97
2019-02-27T22:29:59.689Z,13.70
2019-02-27T22:32:48.147Z,17.80
2019-02-27T22:35:37.957Z,13.37
2019-02-27T22:38:26.589Z,12.87
2019-02-27T22:41:12.286Z,12.87
2019-02-27T22:43:59.585Z,14.83
2019-02-27T22:46:47.838Z,12.77
2019-02-27T22:49:35.809Z,10.27
2019-02-27T22:52:23.183Z,12.07
2019-02-27T22:55:10.911Z,8.10
2019-02-27T22:57:58.034Z,9.83
2019-02-27T23:00:56.646Z,9.07
2019-02-27T23:03:49.577Z,9.77
2019-02-27T23:06:36.924Z,9.83
2019-02-27T23:09:25.655Z,6.77
2019-02-27T23:12:13.113Z,7.13
2019-02-27T23:15:00.405Z,8.87
2019-02-27T23:17:47.696Z,7.27
2019-02-27T23:20:34.965Z,9.03
2019-02-27T23:23:21.989Z,8.63
2019-02-27T23:26:09.423Z,10.63
2019-02-27T23:28:56.692Z,7.53
2019-02-27T23:31:43.755Z,11.00
2019-02-27T23:34:30.977Z,7.60
2019-02-27T23:37:18.232Z,7.90
2019-02-27T23:40:07.182Z,9.30
2019-02-27T23:42:54.538Z,7.60
2019-02-27T23:45:44.535Z,9.37
2019-02-27T23:48:30.297Z,8.63
2019-02-27T23:51:17.806Z,9.50
2019-02-27T23:54:04.982Z,8.70
2019-02-27T23:56:52.947Z,8.90
2019-02-27T23:59:39.965Z,8.23
